Time;durP1;ratioP1;P1;durP2;ratioP2;P2;SDS_P1;SDS_P2;PMS_P1;PMS_P2;Temp;Humidity;BMP_temperature;BMP_pressure;BME280_temperature;BME280_humidity;BME280_pressure;Samples;Min_cycle;Max_cycle;Signal;HPM_P1;HPM_P2
2022/01/26 00:07:54;;;;;;;99.85;55.35;;;51.60;2150.40;;;;;;5092883;28;20113;-56
2022/01/26 00:10:21;;;;;;;319.42;163.60;;;51.60;2150.40;;;;;;5093124;28;20030;-58
2022/01/26 00:12:46;;;;;;;317.00;162.15;;;51.40;2150.40;;;;;;5092856;28;20035;-57
2022/01/26 00:15:12;;;;;;;274.30;146.20;;;51.60;2150.40;;;;;;5092707;28;20390;-54
2022/01/26 00:17:38;;;;;;;143.25;76.38;;;51.60;2150.40;;;;;;5092599;28;20032;-53
2022/01/26 00:28:07;;;;;;;108.75;61.80;;;51.50;2176.00;;;;;;5092444;28;20046;-59
2022/01/26 00:38:48;;;;;;;157.52;82.93;;;51.60;2176.00;;;;;;5091985;28;20059;-54
2022/01/26 00:41:20;;;;;;;140.48;74.20;;;51.60;2124.80;;;;;;5092143;28;20020;-55
2022/01/26 00:43:52;;;;;;;140.43;78.10;;;51.50;2124.80;;;;;;5092221;28;20580;-53
2022/01/26 00:46:19;;;;;;;163.88;87.78;;;51.60;2201.60;;;;;;5092435;28;20024;-56
2022/01/26 00:48:46;;;;;;;130.05;72.88;;;51.60;2150.40;;;;;;5091866;28;20040;-53
2022/01/26 00:51:16;;;;;;;96.88;54.03;;;51.60;2176.00;;;;;;5092153;28;20389;-56
2022/01/26 00:53:46;;;;;;;62.45;37.33;;;51.70;2201.60;;;;;;5091947;28;20028;-57
2022/01/26 00:56:12;;;;;;;115.38;67.90;;;51.70;2176.00;;;;;;5092287;28;20028;-59
2022/01/26 00:58:38;;;;;;;112.30;58.53;;;51.70;2176.00;;;;;;5092212;28;20028;-60
2022/01/26 01:01:05;;;;;;;158.40;86.28;;;51.70;2227.20;;;;;;5091986;28;20031;-57
2022/01/26 01:03:33;;;;;;;102.57;52.75;;;51.70;2201.60;;;;;;5091770;28;20036;-57
2022/01/26 01:06:09;;;;;;;170.38;91.25;;;51.70;2201.60;;;;;;5091897;28;20560;-56
2022/01/26 01:08:35;;;;;;;136.80;65.88;;;51.70;2227.20;;;;;;5091524;28;20036;-53
2022/01/26 01:11:01;;;;;;;167.25;87.80;;;51.60;2227.20;;;;;;5091629;28;20082;-62
2022/01/26 01:13:34;;;;;;;117.47;57.28;;;51.70;2227.20;;;;;;5091594;28;20028;-53
2022/01/26 01:16:02;;;;;;;64.00;33.20;;;51.80;2227.20;;;;;;5091798;28;20119;-63
2022/01/26 01:30:58;;;;;;;138.60;62.70;;;51.70;2227.20;;;;;;5091594;28;20023;-63
2022/01/26 01:33:31;;;;;;;75.20;39.00;;;51.80;2227.20;;;;;;5091349;28;20036;-61
2022/01/26 01:35:58;;;;;;;73.18;33.65;;;51.70;2227.20;;;;;;5091176;28;20371;-61
2022/01/26 01:38:27;;;;;;;51.13;27.48;;;51.80;2227.20;;;;;;5091131;28;20034;-53
2022/01/26 01:40:54;;;;;;;114.55;55.13;;;51.80;2227.20;;;;;;5091208;28;20417;-57
2022/01/26 01:43:21;;;;;;;48.80;27.05;;;51.80;2227.20;;;;;;5090736;28;20070;-63
2022/01/26 01:45:50;;;;;;;60.72;33.90;;;51.90;2227.20;;;;;;5090912;28;20051;-58
2022/01/26 01:48:21;;;;;;;36.28;22.23;;;51.80;2227.20;;;;;;5091155;28;20385;-54
2022/01/26 01:50:49;;;;;;;48.20;29.65;;;51.90;2227.20;;;;;;5090739;28;20074;-61
2022/01/26 01:53:17;;;;;;;41.97;25.35;;;51.70;2227.20;;;;;;5091108;28;20108;-61
2022/01/26 01:55:49;;;;;;;31.25;19.40;;;51.70;2227.20;;;;;;5090888;28;20374;-53
2022/01/26 01:58:16;;;;;;;40.00;23.30;;;51.60;2227.20;;;;;;5090814;28;20378;-52
2022/01/26 02:00:43;;;;;;;34.83;21.63;;;51.70;2227.20;;;;;;5090751;28;20060;-61
2022/01/26 02:03:08;;;;;;;39.42;20.55;;;51.70;2227.20;;;;;;5090591;28;20044;-57
2022/01/26 02:05:34;;;;;;;46.45;23.70;;;51.70;2227.20;;;;;;5090548;28;20467;-63
2022/01/26 02:08:00;;;;;;;46.50;27.40;;;51.90;2227.20;;;;;;5090450;28;20024;-63
2022/01/26 02:10:28;;;;;;;40.25;23.48;;;52.00;2227.20;;;;;;5090624;28;20023;-63
2022/01/26 02:12:56;;;;;;;36.78;20.75;;;51.90;2227.20;;;;;;5090502;28;20031;-57
2022/01/26 02:15:28;;;;;;;27.55;16.02;;;51.80;2227.20;;;;;;5090555;28;20489;-53
2022/01/26 02:51:32;;;;;;;30.38;17.10;;;52.10;2227.20;;;;;;5047281;28;20039;-55
2022/01/26 02:56:47;;;;;;;29.55;16.15;;;51.90;2227.20;;;;;;5047893;28;20569;-56
2022/01/26 02:59:14;;;;;;;31.35;15.02;;;51.90;2227.20;;;;;;5046846;28;20128;-59
2022/01/26 03:02:02;;;;;;;20.80;12.07;;;51.90;2227.20;;;;;;5047667;28;20486;-54
2022/01/26 03:09:31;;;;;;;23.70;14.80;;;51.90;2227.20;;;;;;5047563;28;20174;-54
2022/01/26 03:11:58;;;;;;;25.10;13.82;;;51.90;2227.20;;;;;;5047312;28;20029;-60
2022/01/26 03:14:38;;;;;;;24.73;11.18;;;51.90;2227.20;;;;;;5047324;28;20095;-57
2022/01/26 03:17:15;;;;;;;81.38;34.72;;;51.90;2227.20;;;;;;5047574;28;20478;-59
2022/01/26 03:19:46;;;;;;;24.73;13.25;;;51.80;2227.20;;;;;;5047490;28;20355;-62
2022/01/26 03:30:19;;;;;;;37.92;19.77;;;52.00;2227.20;;;;;;5090071;28;20027;-58
2022/01/26 03:35:41;;;;;;;22.90;12.20;;;52.00;2227.20;;;;;;5089727;28;20043;-62
2022/01/26 03:38:07;;;;;;;23.65;11.48;;;52.10;2227.20;;;;;;5089500;28;20053;-63
2022/01/26 03:40:36;;;;;;;44.28;22.70;;;52.10;2227.20;;;;;;5088584;28;20101;-55
2022/01/26 03:43:02;;;;;;;22.10;12.57;;;52.00;2227.20;;;;;;5089684;28;20028;-62
2022/01/26 03:45:28;;;;;;;52.08;25.05;;;52.00;2227.20;;;;;;5089726;28;20024;-58
2022/01/26 03:47:55;;;;;;;24.80;13.90;;;52.10;2227.20;;;;;;5089429;28;20036;-59
2022/01/26 03:50:22;;;;;;;22.05;12.30;;;52.10;2227.20;;;;;;5092893;28;20027;-62
2022/01/26 03:52:48;;;;;;;20.73;12.23;;;76.90;2227.20;;;;;;5093449;28;20040;-62
2022/01/26 03:55:13;;;;;;;20.15;11.48;;;76.80;2227.20;;;;;;5093287;28;20020;-56
2022/01/26 03:57:39;;;;;;;63.25;29.30;;;76.90;2227.20;;;;;;5093287;28;20040;-61
2022/01/26 04:00:07;;;;;;;36.83;19.92;;;76.80;2227.20;;;;;;5093165;28;20455;-62
2022/01/26 04:02:34;;;;;;;78.82;37.58;;;76.90;2227.20;;;;;;5091460;28;20032;-56
2022/01/26 04:05:03;;;;;;;35.25;22.33;;;76.80;2227.20;;;;;;5093215;28;20474;-59
2022/01/26 04:07:29;;;;;;;80.43;35.13;;;52.10;2227.20;;;;;;5092817;28;20799;-64
2022/01/26 04:10:02;;;;;;;118.47;51.20;;;52.10;2227.20;;;;;;5092594;28;20027;-62
2022/01/26 04:12:28;;;;;;;;;;;52.10;2227.20;;;;;;5093671;28;20028;-61
2022/01/26 04:15:00;;;;;;;64.45;36.72;;;76.80;2227.20;;;;;;5092841;28;19911;-62
2022/01/26 04:17:26;;;;;;;52.20;23.50;;;52.10;2227.20;;;;;;5092689;28;20020;-62
2022/01/26 04:19:56;;;;;;;36.20;17.85;;;76.80;2227.20;;;;;;5093024;28;20023;-63
2022/01/26 04:22:29;;;;;;;54.00;28.23;;;76.80;2227.20;;;;;;5092708;28;20027;-59
2022/01/26 04:24:56;;;;;;;106.85;48.50;;;76.80;2227.20;;;;;;5092154;28;20031;-62
2022/01/26 04:27:43;;;;;;;28.52;18.80;;;52.10;2227.20;;;;;;5092498;28;20166;-63
2022/01/26 04:30:09;;;;;;;23.02;12.32;;;52.10;2227.20;;;;;;5092813;28;20020;-55
2022/01/26 04:32:35;;;;;;;19.10;12.18;;;52.10;2227.20;;;;;;5092298;28;20389;-53
2022/01/26 04:35:01;;;;;;;32.53;16.60;;;76.80;2227.20;;;;;;5092778;28;20035;-53
2022/01/26 04:40:00;;;;;;;31.20;17.35;;;76.80;2227.20;;;;;;5092126;28;20543;-54
2022/01/26 04:42:37;;;;;;;51.55;25.75;;;76.90;2227.20;;;;;;5092276;28;20389;-59
2022/01/26 04:45:08;;;;;;;44.35;23.65;;;76.90;2227.20;;;;;;5092468;28;20024;-61
2022/01/26 04:47:34;;;;;;;44.97;26.80;;;76.90;2227.20;;;;;;5092205;28;20054;-60
2022/01/26 04:50:00;;;;;;;27.52;16.48;;;76.90;2227.20;;;;;;5092352;28;20481;-61
2022/01/26 04:52:26;;;;;;;20.13;11.45;;;76.90;2227.20;;;;;;5091980;28;20386;-61
2022/01/26 04:54:52;;;;;;;21.45;12.57;;;76.90;2227.20;;;;;;5092078;28;20020;-58
2022/01/26 04:57:18;;;;;;;23.35;12.65;;;76.90;2227.20;;;;;;5091766;28;20447;-60
2022/01/26 04:59:44;;;;;;;29.23;19.00;;;77.00;2227.20;;;;;;5091338;28;20016;-57
2022/01/26 05:02:10;;;;;;;33.47;17.52;;;77.00;2227.20;;;;;;5091538;28;20027;-60
2022/01/26 05:04:36;;;;;;;31.67;16.15;;;76.90;2227.20;;;;;;5091444;28;20139;-59
2022/01/26 05:07:01;;;;;;;47.05;26.13;;;76.90;2227.20;;;;;;5091994;28;20559;-61
2022/01/26 05:09:27;;;;;;;27.25;15.70;;;76.90;2227.20;;;;;;5091791;28;20081;-58
2022/01/26 05:11:55;;;;;;;18.10;10.63;;;76.90;2227.20;;;;;;5089954;28;20387;-55
2022/01/26 05:14:21;;;;;;;32.78;19.65;;;77.00;2227.20;;;;;;5091913;28;20477;-60
2022/01/26 05:16:47;;;;;;;25.65;13.65;;;77.00;2227.20;;;;;;5091736;28;20035;-58
2022/01/26 05:19:13;;;;;;;25.17;13.30;;;77.00;2227.20;;;;;;5091811;28;20030;-59
2022/01/26 05:21:40;;;;;;;27.25;13.75;;;76.90;2227.20;;;;;;5091558;28;20115;-61
2022/01/26 05:24:07;;;;;;;20.20;11.82;;;77.00;2227.20;;;;;;5091403;28;20493;-62
2022/01/26 05:26:33;;;;;;;28.00;16.42;;;77.10;2227.20;;;;;;5091677;28;20032;-61
2022/01/26 05:28:58;;;;;;;33.33;17.52;;;77.10;2227.20;;;;;;5091126;28;20032;-59
2022/01/26 05:31:24;;;;;;;30.98;17.05;;;77.10;2227.20;;;;;;5091406;28;20035;-59
2022/01/26 05:33:50;;;;;;;26.45;15.00;;;77.20;2227.20;;;;;;5091379;28;20043;-60
2022/01/26 05:36:16;;;;;;;31.63;18.95;;;77.30;2227.20;;;;;;5091208;28;20032;-60
2022/01/26 05:38:42;;;;;;;24.77;16.13;;;77.20;2227.20;;;;;;5091415;28;20077;-60
2022/01/26 05:41:09;;;;;;;25.95;17.65;;;77.10;2227.20;;;;;;5091106;28;20416;-59
2022/01/26 05:43:35;;;;;;;28.08;20.75;;;77.20;2227.20;;;;;;5090781;28;20032;-60
2022/01/26 05:46:31;;;;;;;58.80;41.35;;;77.10;2227.20;;;;;;5091243;28;20019;-57
2022/01/26 05:48:49;;;;;;;23.40;14.75;;;77.10;2227.20;;;;;;5090914;28;20131;-56
2022/01/26 05:51:16;;;;;;;17.35;10.98;;;77.10;2227.20;;;;;;5090798;28;20363;-55
2022/01/26 05:53:42;;;;;;;27.50;16.58;;;77.20;2227.20;;;;;;5090946;28;20024;-59
2022/01/26 05:56:08;;;;;;;20.15;11.82;;;77.10;2227.20;;;;;;5091105;28;20111;-58
2022/01/26 05:58:34;;;;;;;21.58;11.93;;;77.00;2227.20;;;;;;5090716;28;20169;-60
2022/01/26 06:01:01;;;;;;;21.73;12.98;;;77.10;2227.20;;;;;;5091102;28;20012;-60
2022/01/26 06:03:30;;;;;;;19.98;12.88;;;77.10;2227.20;;;;;;5090379;28;20052;-56
2022/01/26 06:05:56;;;;;;;16.50;10.02;;;77.10;2227.20;;;;;;5090397;28;20031;-61
2022/01/26 06:08:23;;;;;;;29.60;11.90;;;77.10;2227.20;;;;;;5090739;28;20035;-57
2022/01/26 06:10:50;;;;;;;19.63;11.75;;;77.10;2227.20;;;;;;5090657;28;20081;-58
2022/01/26 06:13:16;;;;;;;18.33;11.77;;;77.00;2227.20;;;;;;5090240;28;20462;-61
2022/01/26 06:15:43;;;;;;;22.08;10.70;;;77.10;2227.20;;;;;;5090644;28;20032;-56
2022/01/26 06:18:10;;;;;;;19.42;11.02;;;77.40;2227.20;;;;;;5090639;28;20083;-59
2022/01/26 06:20:36;;;;;;;17.33;10.35;;;77.10;2227.20;;;;;;5090172;28;20056;-57
2022/01/26 06:23:03;;;;;;;16.35;9.75;;;77.20;2227.20;;;;;;5090548;28;20030;-55
2022/01/26 06:25:30;;;;;;;18.08;9.75;;;77.30;2227.20;;;;;;5090431;28;20039;-58
2022/01/26 06:27:58;;;;;;;16.88;9.43;;;77.40;2227.20;;;;;;5090168;28;20036;-57
2022/01/26 06:30:24;;;;;;;20.63;10.52;;;77.30;2227.20;;;;;;5090452;28;20036;-57
2022/01/26 06:32:50;;;;;;;18.27;9.80;;;77.30;2227.20;;;;;;5090467;28;20036;-58
2022/01/26 06:35:16;;;;;;;17.75;9.88;;;77.30;2227.20;;;;;;5090133;28;20127;-59
2022/01/26 06:37:44;;;;;;;17.60;10.80;;;77.40;2227.20;;;;;;5090346;28;20028;-58
2022/01/26 06:40:10;;;;;;;26.70;17.05;;;77.40;2227.20;;;;;;5090636;28;20032;-58
2022/01/26 06:42:49;;;;;;;19.48;11.77;;;77.50;2227.20;;;;;;5090008;28;20036;-58
2022/01/26 06:45:18;;;;;;;20.92;10.32;;;77.40;2227.20;;;;;;5090249;28;20099;-57
2022/01/26 06:50:25;;;;;;;12.43;8.98;;;77.40;2227.20;;;;;;5090439;28;20027;-57
2022/01/26 06:52:51;;;;;;;18.33;12.45;;;77.40;2227.20;;;;;;5090219;28;20027;-57
2022/01/26 06:55:19;;;;;;;16.83;9.30;;;77.40;2227.20;;;;;;5090081;28;20020;-58
2022/01/26 06:57:44;;;;;;;19.35;10.52;;;77.50;2227.20;;;;;;5090071;28;20035;-58
2022/01/26 07:00:11;;;;;;;15.73;10.10;;;77.40;2227.20;;;;;;5090086;28;20382;-58
2022/01/26 07:02:39;;;;;;;26.52;15.30;;;77.40;2227.20;;;;;;5089616;28;20024;-58
2022/01/26 07:05:05;;;;;;;16.60;9.52;;;77.40;2227.20;;;;;;5089463;28;20070;-56
2022/01/26 07:07:31;;;;;;;14.07;8.70;;;77.40;2227.20;;;;;;5090165;28;20046;-59
2022/01/26 07:09:57;;;;;;;15.50;8.95;;;77.40;2227.20;;;;;;5089907;28;20028;-54
2022/01/26 07:12:22;;;;;;;14.45;8.55;;;77.60;2227.20;;;;;;5089932;28;20024;-56
2022/01/26 07:22:44;;;;;;;19.00;10.45;;;77.70;2227.20;;;;;;5089675;28;20108;-57
2022/01/26 07:25:10;;;;;;;17.20;9.48;;;77.70;2227.20;;;;;;5093337;28;20110;-59
2022/01/26 07:27:36;;;;;;;22.02;13.18;;;102.40;2227.20;;;;;;5093739;28;20474;-58
2022/01/26 07:30:03;;;;;;;14.90;10.05;;;102.40;2227.20;;;;;;5093837;28;20108;-57
2022/01/26 07:32:30;;;;;;;20.35;10.52;;;102.40;2227.20;;;;;;5093755;28;20446;-59
2022/01/26 07:34:55;;;;;;;18.27;10.10;;;77.70;2227.20;;;;;;5093683;28;20067;-56
2022/01/26 07:37:24;;;;;;;16.55;9.88;;;102.40;2227.20;;;;;;5093828;28;20051;-58
2022/01/26 07:40:02;;;;;;;22.48;12.88;;;102.40;2227.20;;;;;;5093832;28;20050;-59
2022/01/26 07:42:28;;;;;;;16.80;12.70;;;102.40;2227.20;;;;;;5093679;28;20063;-58
2022/01/26 07:44:54;;;;;;;22.23;13.00;;;102.50;2227.20;;;;;;5092998;28;20385;-55
2022/01/26 07:47:20;;;;;;;16.35;9.65;;;102.50;2227.20;;;;;;5093818;28;20112;-56
2022/01/26 07:49:46;;;;;;;15.82;9.93;;;102.50;2227.20;;;;;;5093332;28;20355;-56
2022/01/26 07:52:14;;;;;;;17.60;10.02;;;102.50;2227.20;;;;;;5093307;28;20052;-56
2022/01/26 07:54:39;;;;;;;18.40;10.27;;;102.60;2227.20;;;;;;5093402;28;20048;-55
2022/01/26 07:57:08;;;;;;;14.13;8.85;;;102.60;2227.20;;;;;;5093375;28;20056;-56
2022/01/26 07:59:34;;;;;;;16.70;9.32;;;102.60;2227.20;;;;;;5092798;28;20032;-57
2022/01/26 08:02:00;;;;;;;16.95;8.13;;;102.70;2227.20;;;;;;5093001;28;20024;-57
2022/01/26 08:04:26;;;;;;;27.70;13.80;;;102.80;2227.20;;;;;;5092745;28;20503;-56
2022/01/26 08:06:51;;;;;;;25.38;13.32;;;102.80;2227.20;;;;;;5093134;28;20046;-56
2022/01/26 08:09:17;;;;;;;16.40;9.60;;;102.80;2227.20;;;;;;5092861;28;20032;-56
2022/01/26 08:11:43;;;;;;;264.70;152.88;;;102.70;2227.20;;;;;;5092991;28;20043;-55
2022/01/26 08:14:09;;;;;;;62.67;41.03;;;102.70;2227.20;;;;;;5093053;28;20024;-58
2022/01/26 08:16:35;;;;;;;41.00;22.17;;;102.80;2227.20;;;;;;5092381;28;20077;-56
2022/01/26 08:19:01;;;;;;;22.02;13.32;;;102.80;2227.20;;;;;;5093114;28;20028;-58
2022/01/26 08:21:27;;;;;;;18.73;11.18;;;102.80;2227.20;;;;;;5092624;28;20042;-57
2022/01/26 08:24:01;;;;;;;21.13;13.50;;;102.90;2227.20;;;;;;5092918;28;20028;-56
2022/01/26 08:26:36;;;;;;;22.98;13.30;;;102.80;2227.20;;;;;;5093146;28;20051;-56
2022/01/26 08:29:03;;;;;;;49.25;25.92;;;102.80;2227.20;;;;;;5092722;28;20040;-56
2022/01/26 08:31:28;;;;;;;25.40;16.67;;;102.90;2227.20;;;;;;5093263;28;20020;-56
2022/01/26 08:33:54;;;;;;;19.85;13.77;;;102.90;2227.20;;;;;;5092477;28;20031;-54
2022/01/26 08:36:20;;;;;;;36.65;23.00;;;103.00;2227.20;;;;;;5092509;28;20046;-56
2022/01/26 08:38:45;;;;;;;31.65;21.13;;;102.90;2227.20;;;;;;5091949;28;20477;-54
2022/01/26 08:41:12;;;;;;;17.80;11.48;;;103.00;2227.20;;;;;;5092417;28;20051;-54
2022/01/26 08:43:37;;;;;;;28.73;16.40;;;103.10;2227.20;;;;;;5092336;28;20636;-55
2022/01/26 08:46:03;;;;;;;25.05;13.80;;;103.10;2227.20;;;;;;5092536;28;20115;-54
2022/01/26 08:48:29;;;;;;;24.48;13.82;;;103.20;2227.20;;;;;;5092551;28;20040;-55
2022/01/26 08:50:55;;;;;;;21.45;14.35;;;103.20;2227.20;;;;;;5091948;28;20032;-59
2022/01/26 08:53:22;;;;;;;25.67;20.20;;;103.10;2227.20;;;;;;5092235;28;20035;-56
2022/01/26 08:55:48;;;;;;;33.60;26.23;;;103.10;2227.20;;;;;;5091981;28;20516;-56
2022/01/26 08:58:13;;;;;;;61.33;39.35;;;103.20;2227.20;;;;;;5090393;28;20028;-54
2022/01/26 09:00:39;;;;;;;22.73;13.38;;;128.00;2252.80;;;;;;5091747;28;20157;-58
2022/01/26 09:03:05;;;;;;;32.70;20.52;;;128.00;2252.80;;;;;;5091720;28;20141;-55
2022/01/26 09:05:31;;;;;;;29.45;16.85;;;103.20;2227.20;;;;;;5092038;28;20047;-55
2022/01/26 09:07:58;;;;;;;28.80;18.55;;;128.00;2252.80;;;;;;5091763;28;20042;-58
2022/01/26 09:10:27;;;;;;;25.55;14.23;;;128.10;2252.80;;;;;;5091672;28;20032;-56
2022/01/26 09:12:53;;;;;;;30.40;18.30;;;128.00;2252.80;;;;;;5091842;28;20032;-53
2022/01/26 09:15:19;;;;;;;22.73;15.65;;;128.20;2252.80;;;;;;5091660;28;20382;-56
2022/01/26 09:17:44;;;;;;;39.28;23.05;;;128.00;2252.80;;;;;;5091649;28;20028;-56
2022/01/26 09:20:11;;;;;;;56.88;35.10;;;128.20;2252.80;;;;;;5091633;28;20114;-57
2022/01/26 09:22:38;;;;;;;26.15;16.52;;;128.30;2252.80;;;;;;5091258;28;20038;-58
2022/01/26 09:25:04;;;;;;;36.80;21.08;;;128.40;2252.80;;;;;;5091856;28;20028;-56
2022/01/26 09:27:30;;;;;;;33.78;20.73;;;128.40;2252.80;;;;;;5091836;28;20040;-55
2022/01/26 09:29:56;;;;;;;30.98;15.40;;;128.30;2252.80;;;;;;5091427;28;20049;-59
2022/01/26 09:32:22;;;;;;;28.02;16.88;;;128.30;2252.80;;;;;;5091406;28;20031;-59
2022/01/26 09:34:48;;;;;;;28.13;17.10;;;128.20;2252.80;;;;;;5091245;28;20036;-57
2022/01/26 09:37:17;;;;;;;26.17;13.55;;;128.20;2252.80;;;;;;5091173;28;20024;-57
2022/01/26 09:39:44;;;;;;;22.02;13.13;;;128.40;2252.80;;;;;;5091207;28;20028;-59
2022/01/26 09:42:10;;;;;;;25.13;16.15;;;128.10;2252.80;;;;;;5091449;28;20031;-60
2022/01/26 09:44:37;;;;;;;19.92;13.35;;;128.10;2252.80;;;;;;5090987;28;20028;-55
2022/01/26 09:47:03;;;;;;;23.85;14.35;;;128.30;2252.80;;;;;;5091142;28;20036;-59
2022/01/26 09:49:33;;;;;;;24.58;15.48;;;128.00;2252.80;;;;;;5091557;28;20097;-58
2022/01/26 09:52:03;;;;;;;29.50;22.77;;;128.20;2252.80;;;;;;5090254;28;20012;-57
2022/01/26 09:54:31;;;;;;;22.58;13.65;;;128.10;2252.80;;;;;;5091246;28;20050;-57
2022/01/26 09:57:03;;;;;;;28.77;15.80;;;128.10;2252.80;;;;;;5091106;28;20020;-56
2022/01/26 09:59:30;;;;;;;28.90;17.83;;;128.20;2252.80;;;;;;5090923;28;20028;-56
2022/01/26 10:01:57;;;;;;;24.25;15.18;;;128.20;2252.80;;;;;;5090400;28;20050;-56
2022/01/26 10:04:26;;;;;;;27.70;18.38;;;128.20;2252.80;;;;;;5090646;28;20052;-56
2022/01/26 10:07:28;;;;;;;29.52;18.83;;;128.10;2252.80;;;;;;5090607;28;20034;-55
2022/01/26 10:10:30;;;;;;;28.02;15.52;;;128.20;2252.80;;;;;;5068055;28;20040;-57
2022/01/26 10:15:59;;;;;;;31.10;17.58;;;128.10;2252.80;;;;;;5068701;28;20118;-56
2022/01/26 10:18:28;;;;;;;27.35;16.35;;;128.20;2252.80;;;;;;5068026;28;20540;-57
2022/01/26 10:20:57;;;;;;;25.33;15.27;;;128.40;2252.80;;;;;;5068005;28;20483;-56
2022/01/26 10:23:36;;;;;;;31.55;20.08;;;128.30;2252.80;;;;;;5067893;28;20039;-56
2022/01/26 10:26:06;;;;;;;25.30;16.17;;;128.20;2252.80;;;;;;5068310;28;20360;-56
2022/01/26 10:28:52;;;;;;;37.72;20.70;;;128.20;2252.80;;;;;;5068218;28;20411;-56
2022/01/26 10:31:21;;;;;;;35.88;23.17;;;128.40;2252.80;;;;;;5067935;28;20028;-56
2022/01/26 10:34:07;;;;;;;29.23;18.27;;;128.10;2252.80;;;;;;5067680;28;20094;-56
2022/01/26 10:36:38;;;;;;;32.83;15.98;;;128.10;2252.80;;;;;;5068099;28;20029;-56
2022/01/26 10:39:09;;;;;;;22.95;13.85;;;128.20;2252.80;;;;;;5067874;28;20039;-57
2022/01/26 10:41:43;;;;;;;29.50;17.23;;;128.20;2252.80;;;;;;5067479;28;20535;-56
2022/01/26 10:44:10;;;;;;;32.63;18.25;;;128.10;2252.80;;;;;;5067994;28;20459;-56
2022/01/26 10:46:40;;;;;;;44.50;20.33;;;128.10;2252.80;;;;;;5083052;28;20040;-56
2022/01/26 10:54:37;;;;;;;27.90;14.15;;;103.30;2227.20;;;;;;5090238;28;20032;-57
2022/01/26 10:57:08;;;;;;;22.10;13.68;;;128.30;2252.80;;;;;;5090523;28;20222;-56
2022/01/26 10:59:40;;;;;;;31.85;15.27;;;128.10;2252.80;;;;;;5092327;28;20028;-58
2022/01/26 11:02:07;;;;;;;28.15;16.40;;;128.20;2252.80;;;;;;5094272;28;20085;-57
2022/01/26 11:04:34;;;;;;;29.58;14.63;;;103.30;2227.20;;;;;;5093794;28;20456;-55
2022/01/26 11:07:02;;;;;;;25.13;15.18;;;128.00;2252.80;;;;;;5094445;28;20028;-55
2022/01/26 11:09:31;;;;;;;26.40;16.17;;;128.10;2252.80;;;;;;5094144;28;20036;-55
2022/01/26 11:12:05;;;;;;;27.27;17.35;;;128.20;2252.80;;;;;;5094071;28;20035;-58
2022/01/26 11:14:42;;;;;;;23.55;15.25;;;128.30;2252.80;;;;;;5094196;28;20486;-56
2022/01/26 11:17:09;;;;;;;26.60;16.60;;;128.20;2252.80;;;;;;5093872;28;20028;-57
2022/01/26 11:19:42;;;;;;;29.60;19.38;;;128.20;2252.80;;;;;;5093925;28;20485;-56
2022/01/26 11:22:10;;;;;;;22.63;14.73;;;128.00;2252.80;;;;;;5094011;28;20039;-57
2022/01/26 11:24:47;;;;;;;22.05;14.77;;;128.10;2252.80;;;;;;5093475;28;20063;-57
2022/01/26 11:27:14;;;;;;;35.97;17.23;;;128.20;2252.80;;;;;;5093828;28;20027;-56
2022/01/26 11:29:45;;;;;;;23.42;14.20;;;128.20;2252.80;;;;;;5094031;28;20024;-55
2022/01/26 11:32:27;;;;;;;31.30;18.15;;;128.30;2252.80;;;;;;5093960;28;20382;-56
2022/01/26 11:34:55;;;;;;;64.93;41.97;;;128.30;2252.80;;;;;;5093915;28;20039;-56
2022/01/26 11:37:37;;;;;;;29.13;18.17;;;128.40;2252.80;;;;;;5093738;28;20420;-54
2022/01/26 11:45:37;;;;;;;27.33;13.65;;;128.30;2252.80;;;;;;5093459;28;20028;-56
2022/01/26 11:48:20;;;;;;;21.30;13.25;;;128.40;2252.80;;;;;;5093492;28;20126;-57
2022/01/26 11:50:58;;;;;;;24.58;15.93;;;128.10;2252.80;;;;;;5093345;28;20020;-57
2022/01/26 11:53:26;;;;;;;26.42;14.57;;;128.10;2252.80;;;;;;5093018;28;20044;-57
2022/01/26 11:56:00;;;;;;;23.77;13.80;;;128.20;2252.80;;;;;;5093344;28;20028;-56
2022/01/26 11:58:37;;;;;;;27.27;14.75;;;128.10;2252.80;;;;;;5092715;28;20032;-55
2022/01/26 12:03:55;;;;;;;29.83;15.07;;;128.20;2252.80;;;;;;5092622;28;20051;-56
2022/01/26 12:06:48;;;;;;;25.58;14.75;;;128.10;2252.80;;;;;;5091112;28;20103;-57
2022/01/26 12:09:14;;;;;;;32.05;18.77;;;128.30;2252.80;;;;;;5090877;28;20036;-57
2022/01/26 12:11:40;;;;;;;30.25;17.33;;;128.30;2252.80;;;;;;5091515;28;20028;-56
2022/01/26 12:14:10;;;;;;;34.90;21.48;;;128.40;2252.80;;;;;;5091493;28;20058;-54
2022/01/26 12:16:43;;;;;;;26.27;15.80;;;128.70;2252.80;;;;;;5090799;28;20023;-55
2022/01/26 12:33:35;;;;;;;27.70;16.67;;;128.40;2252.80;;;;;;5088165;28;20180;-58
2022/01/26 12:38:24;;;;;;;28.27;15.63;;;128.30;2252.80;;;;;;5089688;28;20028;-56
2022/01/26 12:43:44;;;;;;;22.40;14.57;;;128.00;2252.80;;;;;;5087185;28;20035;-57
2022/01/26 12:46:14;;;;;;;;;;;128.10;2252.80;;;;;;5089516;28;20110;-56
2022/01/26 12:48:46;;;;;;;20.63;12.57;;;128.20;2252.80;;;;;;5089492;28;20382;-58
2022/01/26 12:51:12;;;;;;;18.50;13.32;;;128.10;2252.80;;;;;;5089625;28;20016;-53
2022/01/26 12:53:40;;;;;;;39.20;25.77;;;128.20;2252.80;;;;;;5089036;28;20068;-55
2022/01/26 12:56:13;;;;;;;23.73;13.18;;;128.20;2252.80;;;;;;5089321;28;20024;-56
2022/01/26 12:58:40;;;;;;;26.35;14.23;;;128.20;2252.80;;;;;;5086383;28;20103;-55
2022/01/26 13:01:09;;;;;;;26.40;13.27;;;128.20;2252.80;;;;;;5089107;28;20058;-55
2022/01/26 13:03:40;;;;;;;24.48;14.25;;;128.40;2252.80;;;;;;5088987;28;20048;-54
2022/01/26 13:06:18;;;;;;;26.80;14.00;;;128.40;2252.80;;;;;;5089459;28;20032;-55
2022/01/26 13:08:49;;;;;;;21.80;13.82;;;128.40;2252.80;;;;;;5089007;28;20043;-56
2022/01/26 13:11:35;;;;;;;26.02;12.93;;;128.40;2252.80;;;;;;5089432;28;20505;-57
2022/01/26 13:14:15;;;;;;;26.00;15.73;;;128.40;2252.80;;;;;;5090244;28;20073;-57
2022/01/26 13:17:34;;;;;;;28.45;15.32;;;128.40;2252.80;;;;;;5090181;28;20031;-58
2022/01/26 13:41:52;;;;;;;30.83;19.75;;;128.30;2252.80;;;;;;4949111;29;20035;-56
2022/01/26 13:50:21;;;;;;;25.98;16.38;;;128.20;2252.80;;;;;;4948806;29;20031;-57
2022/01/26 13:52:50;;;;;;;25.20;14.55;;;128.20;2252.80;;;;;;4946617;29;20505;-56
2022/01/26 13:55:35;;;;;;;;;;;128.30;2252.80;;;;;;4949084;29;20027;-57
2022/01/26 14:00:39;;;;;;;38.40;22.23;;;128.30;2252.80;;;;;;4948635;29;20444;-56
2022/01/26 14:03:08;;;;;;;36.60;20.30;;;128.40;2252.80;;;;;;4949087;28;20557;-57
2022/01/26 14:05:34;;;;;;;25.63;14.32;;;128.20;2252.80;;;;;;5026444;28;20091;-56
2022/01/26 14:08:00;;;;;;;31.40;15.65;;;128.20;2252.80;;;;;;5026541;28;20041;-54
2022/01/26 14:10:26;;;;;;;23.45;14.45;;;128.20;2252.80;;;;;;5026242;28;20048;-55
2022/01/26 14:12:53;;;;;;;45.20;25.80;;;128.10;2252.80;;;;;;5073057;28;20429;-59
2022/01/26 14:15:25;;;;;;;34.00;20.05;;;128.10;2252.80;;;;;;5091245;28;20042;-56
2022/01/26 14:20:39;;;;;;;34.47;20.70;;;128.10;2252.80;;;;;;5090617;28;20419;-56
2022/01/26 14:25:52;;;;;;;37.60;27.63;;;128.10;2252.80;;;;;;5047098;28;20041;-56
2022/01/26 14:28:22;;;;;;;33.85;23.15;;;128.30;2252.80;;;;;;5047553;28;20052;-55
2022/01/26 14:30:58;;;;;;;29.67;17.35;;;128.40;2252.80;;;;;;5047877;28;20066;-56
2022/01/26 15:30:01;;;;;;;28.02;17.38;;;103.20;2227.20;;;;;;5088304;28;20063;-57
2022/01/26 15:35:08;;;;;;;28.90;17.42;;;103.30;2227.20;;;;;;5088393;28;20054;-56
2022/01/26 15:57:20;;;;;;;27.15;15.10;;;103.30;2227.20;;;;;;5012588;28;20503;-55
2022/01/26 18:13:13;;;;;;;32.00;19.60;;;103.00;2227.20;;;;;;5089079;28;20028;-54
2022/01/26 18:50:47;;;;;;;33.17;20.17;;;103.00;2227.20;;;;;;5088480;28;20085;-52
2022/01/26 18:53:13;;;;;;;31.60;22.25;;;102.90;2227.20;;;;;;5088233;28;20028;-54
2022/01/26 18:55:40;;;;;;;33.10;20.33;;;102.90;2227.20;;;;;;5088654;28;20038;-63
2022/01/26 18:58:06;;;;;;;36.58;23.23;;;103.00;2227.20;;;;;;5088342;28;20119;-63
2022/01/26 19:00:32;;;;;;;34.78;21.27;;;103.00;2227.20;;;;;;5088497;28;20438;-63
2022/01/26 19:02:59;;;;;;;39.15;23.90;;;103.10;2227.20;;;;;;5088088;28;20105;-56
2022/01/26 19:05:28;;;;;;;29.23;19.77;;;103.00;2227.20;;;;;;5088163;28;20024;-54
2022/01/26 19:07:56;;;;;;;52.92;34.63;;;103.00;2227.20;;;;;;5088532;28;20043;-55
2022/01/26 19:10:22;;;;;;;44.47;27.05;;;103.10;2227.20;;;;;;5087322;28;20031;-62
2022/01/26 19:12:50;;;;;;;45.67;31.15;;;103.20;2227.20;;;;;;5088069;28;20241;-56